• Join FlightAware (Why Join?)
  • Login
  • US Flag 
09:03PM EDT


 

Airport Tracker/Info


-or-


 

Live Flight TrackerFlight Track Log ✈ CSN6338 ✈ 15-Nov-2013 ✈ ZSNJ / NKG - ZYTL / DLC

Flight Track Log - Related Links

Times and Time Zones

All times are in EST time to prevent confusion due to time zone crossing. See the CSN6338 flight status page for this flight to view local times or setup timezone preferences in your user account.

Time Position Orientation Groundspeed Altitude Reporting Facility
EST Latitude Longitude Course Direction KTS MPH feet Rate Location/Type
06:09AM 32.2694 119.0415 16° North  Level Estimated
06:10AM 32.4012 119.0867 16° North  Level Estimated
06:11AM 32.5330 119.1320 16° North  Level Estimated
06:12AM 32.6647 119.1775 16° North  Level Estimated
06:13AM 32.7965 119.2231 16° North  Level Estimated
06:14AM 32.9282 119.2688 16° North  Level Estimated
06:15AM 33.0599 119.3147 16° North  Level Estimated
06:16AM 33.1916 119.3607 16° North  Level Estimated
06:17AM 33.3233 119.4069 16° North  Level Estimated
06:18AM 33.4550 119.4531 16° North  Level Estimated
06:19AM 33.5866 119.4996 16° North  Level Estimated
06:20AM 33.7182 119.5462 16° North  Level Estimated
06:21AM 33.8498 119.5929 16° North  Level Estimated
06:22AM 33.9814 119.6397 16° North  Level Estimated
06:23AM 34.1130 119.6867 16° North  Level Estimated
06:24AM 34.2446 119.7339 17° North  Level Estimated
06:25AM 34.3761 119.7812 17° North  Level Estimated
06:26AM 34.5076 119.8286 17° North  Level Estimated
06:27AM 34.6391 119.8762 17° North  Level Estimated
06:28AM 34.7706 119.9239 17° North  Level Estimated
06:29AM 34.9021 119.9718 17° North  Level Estimated
06:30AM 35.0335 120.0199 17° North  Level Estimated
06:31AM 35.1649 120.0681 17° North  Level Estimated
06:32AM 35.2963 120.1164 17° North  Level Estimated
06:33AM 35.4277 120.1649 17° North  Level Estimated
06:34AM 35.5591 120.2136 17° North  Level Estimated
06:35AM 35.6905 120.2625 17° North  Level Estimated
06:36AM 35.8218 120.3115 17° North  Level Estimated
06:37AM 35.9531 120.3606 17° North  Level Estimated
06:38AM 36.0844 120.4100 17° North  Level Estimated
06:39AM 36.2157 120.4594 17° North  Level Estimated
06:40AM 36.3469 120.5091 17° North  Level Estimated
06:41AM 36.4781 120.5589 17° North  Level Estimated
06:42AM 36.6093 120.6089 17° North  Level Estimated
06:43AM 36.7405 120.6591 17° North  Level Estimated
06:44AM 36.8717 120.7094 17° North  Level Estimated
06:45AM 37.0028 120.7599 17° North  Level Estimated
06:46AM 37.1340 120.8106 17° North  Level Estimated
06:47AM 37.2651 120.8614 17° North  Level Estimated
06:48AM 37.3961 120.9125 17° North  Level Estimated
06:49AM 37.5272 120.9637 17° North  Level Estimated
06:50AM 37.6582 121.0151 17° North  Level Estimated
06:51AM 37.7892 121.0667 17° North  Level Estimated
06:52AM 37.9202 121.1184 17° North  Level Estimated
06:53AM 38.0512 121.1704 17° North  Level Estimated
06:54AM 38.1821 121.2225 17° North  Level Estimated
06:55AM 38.3131 121.2748 17° North  Level Estimated
06:56AM 38.4440 121.3273 17° North  Level Estimated
06:57AM 38.5748 121.3800 17° North  Level Estimated
06:58AM 38.7057 121.4329 18° North  Level Estimated
06:59AM 38.8365 121.4860 18° North  Level Estimated
07:00AM 38.9657 121.5386 18° North  Level Estimated
07:01AM 38.9657 121.5386 180° South  Level Estimated
07:02AM 38.9657 121.5386 180° South  Level Estimated
07:03AM 38.9657 121.5386 180° South  Level Estimated
07:04AM 38.9657 121.5386 180° South  Level Estimated
07:05AM 38.9657 121.5386 180° South  Level Estimated
07:06AM 38.9657 121.5386 180° South  Level Estimated
07:07AM 38.9657 121.5386 180° South  Level Estimated
07:08AM 38.9657 121.5386 180° South  Level Estimated
07:09AM 38.9657 121.5386 180° South  Level Estimated
07:10AM 38.9657 121.5386 180° South  Level Estimated
07:11AM 38.9657 121.5386 180° South  Level Estimated
07:12AM 38.9657 121.5386 180° South  Level Estimated
07:13AM 38.9657 121.5386 180° South  Level Estimated
07:14AM 38.9657 121.5386 180° South  Level Estimated
07:15AM 38.9657 121.5386 180° South  Level Estimated
07:16AM 38.9657 121.5386 180° South  Level Estimated